Bay Phoenix — A8OE5 — position and weather

sailwx.info

Track history (hours):
 
Tides and Currents Weather Stations Pressure Air Temp Water Temp Dewpoint Dewpoint Depression Visibility Wind Speed Wind Dir Waves Ship Positions

Bay Phoenix

Last reported at 2017-Apr-23 21:57 UTC. Time now 2017-May-01 02:18 UTC.
Position N 08°29' W 015°39'.

Length 134 m; draft 4.8 m.

Type: Cargo ship. MMSI: 636015543.

Date/timePositionNaut miles runAvg speedWind from/ knotsBaromVisibWave heightAir tempDewpointWater temp
2017-Apr-23 21:57N 08°29' W 015°39'717.0
2017-Apr-23 21:30N 08°36' W 015°44'816.7
2017-Apr-23 21:00N 08°43' W 015°48'916.4
2017-Apr-23 20:29N 08°50' W 015°53'816.5
2017-Apr-23 20:00N 08°57' W 015°57'1416.5
2017-Apr-23 19:10N 09°08' W 016°05'316.5
2017-Apr-23 19:01N 09°10' W 016°06'816.5
2017-Apr-23 18:30N 09°17' W 016°11'916.6
2017-Apr-23 17:57N 09°25' W 016°16'716.7
2017-Apr-23 17:31N 09°31' W 016°20'816.7
2017-Apr-23 17:01N 09°38' W 016°25'916.7
2017-Apr-23 16:27N 09°46' W 016°30'4116.6
2017-Apr-23 14:00N 10°20' W 016°53'916.6
2017-Apr-23 13:26N 10°28' W 016°58'21715.4
2017-Apr-22 23:18N 13°58' W 017°53'8816.2
2017-Apr-22 17:54N 15°26' W 017°48'816.6
2017-Apr-22 17:25N 15°34' W 017°47'  
2017-Apr-18 16:09N 20°54' W 017°00'0 0.0
2017-Apr-18 15:53N 20°54' W 017°00'0 0.0
2017-Apr-18 12:03N 20°54' W 017°00'0 0.1
2017-Apr-18 11:39N 20°54' W 017°00'  
Track history (hours):
 
Tides and Currents Weather Stations Pressure Air Temp Water Temp Dewpoint Dewpoint Depression Visibility Wind Speed Wind Dir Waves Ship Positions

Bay Phoenix

Last reported at 2017-Apr-23 21:57 UTC. Time now 2017-May-01 02:18 UTC.
Position N 08°29' W 015°39'.

Length 134 m; draft 4.8 m.

Type: Cargo ship. MMSI: 636015543.

Date/timePositionNaut miles runAvg speedWind from/ knotsBaromVisibWave heightAir tempDewpointWater temp
2017-Apr-23 21:57N 08°29' W 015°39'717.0
2017-Apr-23 21:30N 08°36' W 015°44'816.7
2017-Apr-23 21:00N 08°43' W 015°48'916.4
2017-Apr-23 20:29N 08°50' W 015°53'816.5
2017-Apr-23 20:00N 08°57' W 015°57'1416.5
2017-Apr-23 19:10N 09°08' W 016°05'316.5
2017-Apr-23 19:01N 09°10' W 016°06'816.5
2017-Apr-23 18:30N 09°17' W 016°11'916.6
2017-Apr-23 17:57N 09°25' W 016°16'716.7
2017-Apr-23 17:31N 09°31' W 016°20'816.7
2017-Apr-23 17:01N 09°38' W 016°25'916.7
2017-Apr-23 16:27N 09°46' W 016°30'4116.6
2017-Apr-23 14:00N 10°20' W 016°53'916.6
2017-Apr-23 13:26N 10°28' W 016°58'21715.4
2017-Apr-22 23:18N 13°58' W 017°53'8816.2
2017-Apr-22 17:54N 15°26' W 017°48'816.6
2017-Apr-22 17:25N 15°34' W 017°47'  
2017-Apr-18 16:09N 20°54' W 017°00'0 0.0
2017-Apr-18 15:53N 20°54' W 017°00'0 0.0
2017-Apr-18 12:03N 20°54' W 017°00'0 0.1
2017-Apr-18 11:39N 20°54' W 017°00'  

Dump ship's entire track history